sensor_id;sensor_type;location;lat;lon;timestamp;pressure;altitude;pressure_sealevel;temperature;humidity
15477;BME280;7840;42.702;23.296;2023-11-21T00:02:27;94939.31;;;3.58;100.00
15477;BME280;7840;42.702;23.296;2023-11-21T00:04:55;94938.50;;;3.64;100.00
15477;BME280;7840;42.702;23.296;2023-11-21T00:07:22;94940.06;;;3.78;100.00
15477;BME280;7840;42.702;23.296;2023-11-21T00:09:50;94936.78;;;3.90;100.00
15477;BME280;7840;42.702;23.296;2023-11-21T00:12:17;94928.66;;;3.98;100.00
15477;BME280;7840;42.702;23.296;2023-11-21T00:14:48;94937.34;;;4.05;100.00
15477;BME280;7840;42.702;23.296;2023-11-21T00:17:15;94931.56;;;3.83;100.00
15477;BME280;7840;42.702;23.296;2023-11-21T00:19:43;94941.56;;;3.48;100.00
15477;BME280;7840;42.702;23.296;2023-11-21T00:22:10;94935.47;;;3.67;100.00
15477;BME280;7840;42.702;23.296;2023-11-21T00:24:38;94939.25;;;3.84;100.00
15477;BME280;7840;42.702;23.296;2023-11-21T00:27:06;94937.97;;;3.94;100.00
15477;BME280;7840;42.702;23.296;2023-11-21T00:29:33;94923.09;;;3.88;100.00
15477;BME280;7840;42.702;23.296;2023-11-21T00:32:02;94923.44;;;3.98;100.00
15477;BME280;7840;42.702;23.296;2023-11-21T00:34:31;94923.31;;;3.86;100.00
15477;BME280;7840;42.702;23.296;2023-11-21T00:36:59;94938.44;;;3.77;100.00
15477;BME280;7840;42.702;23.296;2023-11-21T00:39:27;94931.41;;;3.78;100.00
15477;BME280;7840;42.702;23.296;2023-11-21T00:41:54;94927.13;;;3.83;100.00
15477;BME280;7840;42.702;23.296;2023-11-21T00:44:22;94925.28;;;3.91;100.00
15477;BME280;7840;42.702;23.296;2023-11-21T00:46:49;94926.28;;;3.90;100.00
15477;BME280;7840;42.702;23.296;2023-11-21T00:49:18;94928.22;;;3.56;100.00
15477;BME280;7840;42.702;23.296;2023-11-21T00:51:46;94946.59;;;3.43;100.00
15477;BME280;7840;42.702;23.296;2023-11-21T00:54:14;94927.06;;;3.52;100.00
15477;BME280;7840;42.702;23.296;2023-11-21T00:56:43;94918.34;;;3.65;100.00
15477;BME280;7840;42.702;23.296;2023-11-21T00:59:10;94924.81;;;3.55;100.00
15477;BME280;7840;42.702;23.296;2023-11-21T01:01:38;94919.56;;;3.62;100.00
15477;BME280;7840;42.702;23.296;2023-11-21T01:04:05;94914.06;;;3.70;100.00
15477;BME280;7840;42.702;23.296;2023-11-21T01:06:35;94921.53;;;3.73;100.00
15477;BME280;7840;42.702;23.296;2023-11-21T01:09:03;94920.72;;;3.73;100.00
15477;BME280;7840;42.702;23.296;2023-11-21T01:11:34;94919.09;;;3.78;100.00
15477;BME280;7840;42.702;23.296;2023-11-21T01:14:03;94907.00;;;3.77;100.00
15477;BME280;7840;42.702;23.296;2023-11-21T01:16:30;94907.19;;;3.82;100.00
15477;BME280;7840;42.702;23.296;2023-11-21T01:18:58;94901.72;;;3.84;100.00
15477;BME280;7840;42.702;23.296;2023-11-21T01:21:28;94911.00;;;3.87;100.00
15477;BME280;7840;42.702;23.296;2023-11-21T01:23:58;94914.25;;;3.82;100.00
15477;BME280;7840;42.702;23.296;2023-11-21T01:26:25;94922.31;;;3.80;100.00
15477;BME280;7840;42.702;23.296;2023-11-21T01:28:53;94922.34;;;3.74;100.00
15477;BME280;7840;42.702;23.296;2023-11-21T01:31:21;94904.19;;;3.79;100.00
15477;BME280;7840;42.702;23.296;2023-11-21T01:33:48;94910.25;;;3.73;100.00
15477;BME280;7840;42.702;23.296;2023-11-21T01:36:16;94909.06;;;3.62;100.00
15477;BME280;7840;42.702;23.296;2023-11-21T01:38:43;94922.81;;;3.58;100.00
15477;BME280;7840;42.702;23.296;2023-11-21T01:41:13;94916.72;;;3.64;100.00
15477;BME280;7840;42.702;23.296;2023-11-21T01:43:41;94917.94;;;3.61;100.00
15477;BME280;7840;42.702;23.296;2023-11-21T01:46:09;94914.75;;;3.59;100.00
15477;BME280;7840;42.702;23.296;2023-11-21T01:48:37;94904.06;;;3.54;100.00
15477;BME280;7840;42.702;23.296;2023-11-21T01:51:06;94898.88;;;3.41;100.00
15477;BME280;7840;42.702;23.296;2023-11-21T01:53:34;94902.69;;;3.45;100.00
15477;BME280;7840;42.702;23.296;2023-11-21T01:56:03;94906.34;;;3.44;100.00
15477;BME280;7840;42.702;23.296;2023-11-21T01:58:32;94906.72;;;3.41;100.00
15477;BME280;7840;42.702;23.296;2023-11-21T02:01:00;94912.78;;;3.35;100.00
15477;BME280;7840;42.702;23.296;2023-11-21T02:03:28;94900.09;;;3.38;100.00
15477;BME280;7840;42.702;23.296;2023-11-21T02:05:55;94905.56;;;3.37;100.00
15477;BME280;7840;42.702;23.296;2023-11-21T02:08:22;94901.13;;;3.31;100.00
15477;BME280;7840;42.702;23.296;2023-11-21T02:10:50;94913.22;;;3.32;100.00
15477;BME280;7840;42.702;23.296;2023-11-21T02:13:17;94910.38;;;3.40;100.00
15477;BME280;7840;42.702;23.296;2023-11-21T02:15:46;94911.16;;;3.40;100.00
15477;BME280;7840;42.702;23.296;2023-11-21T02:18:16;94908.34;;;3.42;100.00
15477;BME280;7840;42.702;23.296;2023-11-21T02:20:44;94906.72;;;3.41;100.00
15477;BME280;7840;42.702;23.296;2023-11-21T02:23:13;94903.72;;;3.44;100.00
15477;BME280;7840;42.702;23.296;2023-11-21T02:25:41;94896.25;;;3.41;100.00
15477;BME280;7840;42.702;23.296;2023-11-21T02:28:09;94903.53;;;3.32;100.00
15477;BME280;7840;42.702;23.296;2023-11-21T02:30:39;94903.78;;;3.17;100.00
15477;BME280;7840;42.702;23.296;2023-11-21T02:33:06;94903.00;;;3.10;100.00
15477;BME280;7840;42.702;23.296;2023-11-21T02:38:00;94904.22;;;2.81;100.00
15477;BME280;7840;42.702;23.296;2023-11-21T02:40:29;94899.19;;;2.73;100.00
15477;BME280;7840;42.702;23.296;2023-11-21T02:42:57;94905.63;;;2.84;100.00
15477;BME280;7840;42.702;23.296;2023-11-21T02:45:25;94904.03;;;2.96;100.00
15477;BME280;7840;42.702;23.296;2023-11-21T02:47:52;94902.00;;;2.91;100.00
15477;BME280;7840;42.702;23.296;2023-11-21T02:50:23;94887.69;;;2.94;100.00
15477;BME280;7840;42.702;23.296;2023-11-21T02:52:51;94899.78;;;2.95;100.00
15477;BME280;7840;42.702;23.296;2023-11-21T02:55:18;94897.97;;;3.02;100.00
15477;BME280;7840;42.702;23.296;2023-11-21T02:57:48;94894.34;;;3.03;100.00
15477;BME280;7840;42.702;23.296;2023-11-21T03:00:16;94899.16;;;3.06;100.00
15477;BME280;7840;42.702;23.296;2023-11-21T03:02:44;94897.97;;;3.02;100.00
15477;BME280;7840;42.702;23.296;2023-11-21T03:05:13;94892.75;;;3.02;100.00
15477;BME280;7840;42.702;23.296;2023-11-21T03:07:41;94897.97;;;3.02;100.00
15477;BME280;7840;42.702;23.296;2023-11-21T03:10:09;94894.59;;;2.62;100.00
15477;BME280;7840;42.702;23.296;2023-11-21T03:12:37;94904.03;;;2.43;100.00
15477;BME280;7840;42.702;23.296;2023-11-21T03:15:07;94906.44;;;2.44;100.00
15477;BME280;7840;42.702;23.296;2023-11-21T03:17:35;94896.41;;;2.61;100.00
15477;BME280;7840;42.702;23.296;2023-11-21T03:20:03;94904.41;;;2.66;100.00
15477;BME280;7840;42.702;23.296;2023-11-21T03:22:31;94905.63;;;2.77;100.00
15477;BME280;7840;42.702;23.296;2023-11-21T03:24:59;94906.44;;;2.78;100.00
15477;BME280;7840;42.702;23.296;2023-11-21T03:27:26;94907.25;;;2.71;100.00
15477;BME280;7840;42.702;23.296;2023-11-21T03:29:54;94907.84;;;2.67;100.00
15477;BME280;7840;42.702;23.296;2023-11-21T03:32:23;94910.88;;;2.70;100.00
15477;BME280;7840;42.702;23.296;2023-11-21T03:34:55;94907.22;;;2.85;100.00
15477;BME280;7840;42.702;23.296;2023-11-21T03:37:24;94904.81;;;2.90;100.00
15477;BME280;7840;42.702;23.296;2023-11-21T03:39:54;94903.41;;;2.94;100.00
15477;BME280;7840;42.702;23.296;2023-11-21T03:42:21;94895.16;;;2.97;100.00
15477;BME280;7840;42.702;23.296;2023-11-21T03:44:49;94896.53;;;3.06;100.00
15477;BME280;7840;42.702;23.296;2023-11-21T03:47:17;94890.28;;;3.07;100.00
15477;BME280;7840;42.702;23.296;2023-11-21T03:49:46;94885.47;;;3.04;100.00
15477;BME280;7840;42.702;23.296;2023-11-21T03:52:14;94881.84;;;3.05;100.00
15477;BME280;7840;42.702;23.296;2023-11-21T03:54:42;94877.84;;;3.03;100.00
15477;BME280;7840;42.702;23.296;2023-11-21T03:57:09;94881.03;;;3.11;100.00
15477;BME280;7840;42.702;23.296;2023-11-21T03:59:39;94884.25;;;3.13;100.00
15477;BME280;7840;42.702;23.296;2023-11-21T04:02:07;94888.66;;;3.19;100.00
15477;BME280;7840;42.702;23.296;2023-11-21T04:04:35;94876.16;;;3.21;100.00
15477;BME280;7840;42.702;23.296;2023-11-21T04:07:04;94872.78;;;3.14;100.00
15477;BME280;7840;42.702;23.296;2023-11-21T04:09:32;94879.81;;;3.20;100.00
15477;BME280;7840;42.702;23.296;2023-11-21T04:11:59;94870.94;;;3.21;100.00
15477;BME280;7840;42.702;23.296;2023-11-21T04:14:27;94871.16;;;3.20;100.00
15477;BME280;7840;42.702;23.296;2023-11-21T04:16:55;94873.16;;;3.31;100.00
15477;BME280;7840;42.702;23.296;2023-11-21T04:19:22;94877.38;;;3.25;100.00
15477;BME280;7840;42.702;23.296;2023-11-21T04:21:50;94874.53;;;3.34;100.00
15477;BME280;7840;42.702;23.296;2023-11-21T04:24:19;94875.97;;;3.29;100.00
15477;BME280;7840;42.702;23.296;2023-11-21T04:26:46;94876.78;;;3.23;100.00
15477;BME280;7840;42.702;23.296;2023-11-21T04:29:14;94875.84;;;2.85;100.00
15477;BME280;7840;42.702;23.296;2023-11-21T04:31:41;94879.06;;;2.73;100.00
15477;BME280;7840;42.702;23.296;2023-11-21T04:34:09;94876.63;;;2.92;100.00
15477;BME280;7840;42.702;23.296;2023-11-21T04:36:36;94873.44;;;2.96;100.00
15477;BME280;7840;42.702;23.296;2023-11-21T04:39:04;94884.84;;;3.09;100.00
15477;BME280;7840;42.702;23.296;2023-11-21T04:41:34;94885.47;;;3.11;100.00
15477;BME280;7840;42.702;23.296;2023-11-21T04:44:02;94889.94;;;2.84;100.00
15477;BME280;7840;42.702;23.296;2023-11-21T04:46:31;94884.28;;;2.87;100.00
15477;BME280;7840;42.702;23.296;2023-11-21T04:48:58;94885.69;;;3.03;100.00
15477;BME280;7840;42.702;23.296;2023-11-21T04:51:26;94887.69;;;3.00;100.00
15477;BME280;7840;42.702;23.296;2023-11-21T04:53:54;94899.59;;;2.63;100.00
15477;BME280;7840;42.702;23.296;2023-11-21T04:56:21;94891.16;;;2.35;100.00
15477;BME280;7840;42.702;23.296;2023-11-21T04:58:50;94891.13;;;2.28;100.00
15477;BME280;7840;42.702;23.296;2023-11-21T05:01:18;94889.13;;;2.24;100.00
15477;BME280;7840;42.702;23.296;2023-11-21T05:03:46;94892.13;;;2.21;100.00
15477;BME280;7840;42.702;23.296;2023-11-21T05:06:15;94899.53;;;2.10;100.00
15477;BME280;7840;42.702;23.296;2023-11-21T05:08:42;94904.00;;;2.30;100.00
15477;BME280;7840;42.702;23.296;2023-11-21T05:11:10;94893.56;;;2.36;100.00
15477;BME280;7840;42.702;23.296;2023-11-21T05:13:37;94885.50;;;2.38;100.00
15477;BME280;7840;42.702;23.296;2023-11-21T05:16:07;94885.72;;;2.43;100.00
15477;BME280;7840;42.702;23.296;2023-11-21T05:18:35;94884.91;;;2.36;100.00
15477;BME280;7840;42.702;23.296;2023-11-21T05:21:02;94876.66;;;2.52;100.00
15477;BME280;7840;42.702;23.296;2023-11-21T05:23:31;94875.06;;;2.58;100.00
15477;BME280;7840;42.702;23.296;2023-11-21T05:26:00;94878.88;;;2.68;100.00
15477;BME280;7840;42.702;23.296;2023-11-21T05:28:27;94892.94;;;2.81;100.00
15477;BME280;7840;42.702;23.296;2023-11-21T05:30:55;94899.59;;;2.57;100.00
15477;BME280;7840;42.702;23.296;2023-11-21T05:33:24;94895.59;;;2.61;100.00
15477;BME280;7840;42.702;23.296;2023-11-21T05:35:51;94900.38;;;2.31;100.00
15477;BME280;7840;42.702;23.296;2023-11-21T05:38:19;94893.34;;;2.25;100.00
15477;BME280;7840;42.702;23.296;2023-11-21T05:40:47;94895.56;;;2.41;100.00
15477;BME280;7840;42.702;23.296;2023-11-21T05:43:15;94895.59;;;2.54;100.00
15477;BME280;7840;42.702;23.296;2023-11-21T05:45:42;94900.00;;;2.60;100.00
15477;BME280;7840;42.702;23.296;2023-11-21T05:48:10;94899.19;;;2.60;100.00
15477;BME280;7840;42.702;23.296;2023-11-21T05:50:40;94898.00;;;2.69;100.00
15477;BME280;7840;42.702;23.296;2023-11-21T05:53:07;94901.59;;;2.81;100.00
15477;BME280;7840;42.702;23.296;2023-11-21T05:55:36;94899.16;;;2.99;100.00
15477;BME280;7840;42.702;23.296;2023-11-21T05:58:03;94893.53;;;3.09;100.00
15477;BME280;7840;42.702;23.296;2023-11-21T06:00:31;94888.66;;;3.19;100.00
15477;BME280;7840;42.702;23.296;2023-11-21T06:02:59;94891.84;;;3.35;100.00
15477;BME280;7840;42.702;23.296;2023-11-21T06:05:27;94894.22;;;3.43;100.00
15477;BME280;7840;42.702;23.296;2023-11-21T06:07:56;94896.22;;;3.54;100.00
15477;BME280;7840;42.702;23.296;2023-11-21T06:10:25;94897.56;;;3.05;100.00
15477;BME280;7840;42.702;23.296;2023-11-21T06:12:53;94904.78;;;3.16;100.00
15477;BME280;7840;42.702;23.296;2023-11-21T06:15:20;94897.84;;;3.42;100.00
15477;BME280;7840;42.702;23.296;2023-11-21T06:17:49;94901.69;;;3.46;100.00
15477;BME280;7840;42.702;23.296;2023-11-21T06:20:19;94902.97;;;3.23;100.00
15477;BME280;7840;42.702;23.296;2023-11-21T06:22:48;94898.66;;;3.49;100.00
15477;BME280;7840;42.702;23.296;2023-11-21T06:25:17;94900.69;;;3.47;100.00
15477;BME280;7840;42.702;23.296;2023-11-21T06:27:46;94908.19;;;3.23;100.00
15477;BME280;7840;42.702;23.296;2023-11-21T06:30:15;94908.72;;;3.52;100.00
15477;BME280;7840;42.702;23.296;2023-11-21T06:32:44;94914.28;;;3.69;100.00
15477;BME280;7840;42.702;23.296;2023-11-21T06:35:13;94911.16;;;3.47;100.00
15477;BME280;7840;42.702;23.296;2023-11-21T06:37:41;94921.94;;;3.70;100.00
15477;BME280;7840;42.702;23.296;2023-11-21T06:40:13;94915.88;;;3.76;100.00
15477;BME280;7840;42.702;23.296;2023-11-21T06:42:43;94921.63;;;3.47;100.00
15477;BME280;7840;42.702;23.296;2023-11-21T06:45:11;94936.19;;;3.10;100.00
15477;BME280;7840;42.702;23.296;2023-11-21T06:47:39;94924.81;;;3.49;100.00
15477;BME280;7840;42.702;23.296;2023-11-21T06:50:07;94926.06;;;3.40;100.00
15477;BME280;7840;42.702;23.296;2023-11-21T06:52:35;94923.16;;;3.68;100.00
15477;BME280;7840;42.702;23.296;2023-11-21T06:55:03;94921.50;;;3.80;100.00
15477;BME280;7840;42.702;23.296;2023-11-21T06:57:31;94922.25;;;3.94;100.00
15477;BME280;7840;42.702;23.296;2023-11-21T07:00:01;94922.84;;;3.96;100.00
15477;BME280;7840;42.702;23.296;2023-11-21T07:02:28;94925.06;;;3.99;100.00
15477;BME280;7840;42.702;23.296;2023-11-21T07:04:56;94928.78;;;4.16;100.00
15477;BME280;7840;42.702;23.296;2023-11-21T07:07:24;94923.69;;;4.28;100.00
15477;BME280;7840;42.702;23.296;2023-11-21T07:09:51;94918.84;;;4.25;100.00
15477;BME280;7840;42.702;23.296;2023-11-21T07:12:19;94915.28;;;4.19;100.00
15477;BME280;7840;42.702;23.296;2023-11-21T07:14:49;94907.94;;;4.34;100.00
15477;BME280;7840;42.702;23.296;2023-11-21T07:17:19;94909.53;;;4.35;100.00
15477;BME280;7840;42.702;23.296;2023-11-21T07:19:49;94911.13;;;4.36;100.00
15477;BME280;7840;42.702;23.296;2023-11-21T07:22:17;94899.78;;;4.43;100.00
15477;BME280;7840;42.702;23.296;2023-11-21T07:24:48;94909.25;;;4.75;100.00
15477;BME280;7840;42.702;23.296;2023-11-21T07:27:17;94910.69;;;4.96;100.00
15477;BME280;7840;42.702;23.296;2023-11-21T07:29:45;94921.88;;;5.10;100.00
15477;BME280;7840;42.702;23.296;2023-11-21T07:32:12;94915.41;;;5.31;100.00
15477;BME280;7840;42.702;23.296;2023-11-21T07:34:42;94916.31;;;5.43;100.00
15477;BME280;7840;42.702;23.296;2023-11-21T07:37:10;94910.97;;;5.31;100.00
15477;BME280;7840;42.702;23.296;2023-11-21T07:39:37;94917.31;;;5.24;100.00
15477;BME280;7840;42.702;23.296;2023-11-21T07:42:08;94911.69;;;5.38;100.00
15477;BME280;7840;42.702;23.296;2023-11-21T07:44:37;94911.72;;;5.13;100.00
15477;BME280;7840;42.702;23.296;2023-11-21T07:47:04;94903.66;;;5.33;100.00
15477;BME280;7840;42.702;23.296;2023-11-21T07:49:32;94906.28;;;5.33;100.00
15477;BME280;7840;42.702;23.296;2023-11-21T07:52:01;94902.31;;;5.06;100.00
15477;BME280;7840;42.702;23.296;2023-11-21T07:54:29;94900.13;;;5.03;100.00
15477;BME280;7840;42.702;23.296;2023-11-21T07:56:57;94897.59;;;5.14;100.00
15477;BME280;7840;42.702;23.296;2023-11-21T07:59:25;94887.63;;;5.41;100.00
15477;BME280;7840;42.702;23.296;2023-11-21T08:01:52;94890.41;;;5.65;100.00
15477;BME280;7840;42.702;23.296;2023-11-21T08:04:20;94890.69;;;5.93;100.00
15477;BME280;7840;42.702;23.296;2023-11-21T08:06:48;94878.44;;;6.17;100.00
15477;BME280;7840;42.702;23.296;2023-11-21T08:09:17;94877.56;;;6.35;100.00
15477;BME280;7840;42.702;23.296;2023-11-21T08:11:45;94874.47;;;5.96;100.00
15477;BME280;7840;42.702;23.296;2023-11-21T08:14:13;94887.16;;;6.18;100.00
15477;BME280;7840;42.702;23.296;2023-11-21T08:16:41;94883.31;;;6.32;100.00
15477;BME280;7840;42.702;23.296;2023-11-21T08:19:08;94886.81;;;6.26;100.00
15477;BME280;7840;42.702;23.296;2023-11-21T08:21:36;94882.63;;;6.07;100.00
15477;BME280;7840;42.702;23.296;2023-11-21T08:24:07;94871.47;;;6.11;100.00
15477;BME280;7840;42.702;23.296;2023-11-21T08:26:38;94891.28;;;6.37;100.00
15477;BME280;7840;42.702;23.296;2023-11-21T08:29:06;94879.34;;;6.53;100.00
15477;BME280;7840;42.702;23.296;2023-11-21T08:31:34;94881.97;;;6.65;100.00
15477;BME280;7840;42.702;23.296;2023-11-21T08:34:02;94880.22;;;7.00;100.00
15477;BME280;7840;42.702;23.296;2023-11-21T08:36:30;94869.44;;;6.90;100.00
15477;BME280;7840;42.702;23.296;2023-11-21T08:38:58;94882.03;;;7.35;100.00
15477;BME280;7840;42.702;23.296;2023-11-21T08:41:25;94870.81;;;7.28;100.00
15477;BME280;7840;42.702;23.296;2023-11-21T08:43:55;94875.47;;;7.49;100.00
15477;BME280;7840;42.702;23.296;2023-11-21T08:46:24;94878.31;;;7.59;100.00
15477;BME280;7840;42.702;23.296;2023-11-21T08:48:52;94861.66;;;6.95;100.00
15477;BME280;7840;42.702;23.296;2023-11-21T08:51:19;94862.31;;;7.26;100.00
15477;BME280;7840;42.702;23.296;2023-11-21T08:53:47;94858.75;;;7.55;100.00
15477;BME280;7840;42.702;23.296;2023-11-21T08:56:15;94859.72;;;7.14;100.00
15477;BME280;7840;42.702;23.296;2023-11-21T08:58:44;94853.38;;;7.27;100.00
15477;BME280;7840;42.702;23.296;2023-11-21T09:01:14;94840.69;;;7.24;100.00
15477;BME280;7840;42.702;23.296;2023-11-21T09:03:42;94837.28;;;7.63;100.00
15477;BME280;7840;42.702;23.296;2023-11-21T09:06:11;94831.34;;;7.56;100.00
15477;BME280;7840;42.702;23.296;2023-11-21T09:08:40;94824.25;;;7.45;100.00
15477;BME280;7840;42.702;23.296;2023-11-21T09:11:08;94809.91;;;7.93;100.00
15477;BME280;7840;42.702;23.296;2023-11-21T09:13:36;94811.72;;;8.21;100.00
15477;BME280;7840;42.702;23.296;2023-11-21T09:16:04;94803.66;;;7.82;100.00
15477;BME280;7840;42.702;23.296;2023-11-21T09:18:41;94799.06;;;8.06;100.00
15477;BME280;7840;42.702;23.296;2023-11-21T09:21:09;94785.66;;;8.25;100.00
15477;BME280;7840;42.702;23.296;2023-11-21T09:23:36;94791.63;;;8.48;100.00
15477;BME280;7840;42.702;23.296;2023-11-21T09:26:04;94791.13;;;8.68;100.00
15477;BME280;7840;42.702;23.296;2023-11-21T09:28:43;94779.06;;;8.72;100.00
15477;BME280;7840;42.702;23.296;2023-11-21T09:31:13;94763.41;;;8.88;100.00
15477;BME280;7840;42.702;23.296;2023-11-21T09:33:43;94746.81;;;9.09;100.00
15477;BME280;7840;42.702;23.296;2023-11-21T09:36:14;94757.38;;;9.31;100.00
15477;BME280;7840;42.702;23.296;2023-11-21T09:38:49;94756.28;;;9.27;100.00
15477;BME280;7840;42.702;23.296;2023-11-21T09:41:37;94748.34;;;9.49;100.00
15477;BME280;7840;42.702;23.296;2023-11-21T09:44:10;94742.50;;;9.03;100.00
15477;BME280;7840;42.702;23.296;2023-11-21T09:46:42;94732.25;;;9.28;100.00
15477;BME280;7840;42.702;23.296;2023-11-21T09:49:12;94717.22;;;9.56;100.00
15477;BME280;7840;42.702;23.296;2023-11-21T09:51:43;94706.91;;;9.81;100.00
15477;BME280;7840;42.702;23.296;2023-11-21T09:54:11;94703.81;;;9.90;100.00
15477;BME280;7840;42.702;23.296;2023-11-21T09:56:39;94690.97;;;10.08;100.00
15477;BME280;7840;42.702;23.296;2023-11-21T09:59:15;94694.41;;;10.36;100.00
15477;BME280;7840;42.702;23.296;2023-11-21T10:01:43;94698.97;;;10.46;100.00
15477;BME280;7840;42.702;23.296;2023-11-21T10:04:15;94695.44;;;10.35;100.00
15477;BME280;7840;42.702;23.296;2023-11-21T10:06:44;94690.56;;;10.54;100.00
15477;BME280;7840;42.702;23.296;2023-11-21T10:09:14;94687.50;;;10.72;100.00
15477;BME280;7840;42.702;23.296;2023-11-21T10:11:43;94683.88;;;10.88;100.00
15477;BME280;7840;42.702;23.296;2023-11-21T10:14:12;94682.31;;;10.98;100.00
15477;BME280;7840;42.702;23.296;2023-11-21T10:16:41;94679.00;;;10.65;100.00
15477;BME280;7840;42.702;23.296;2023-11-21T10:19:11;94678.41;;;11.05;100.00
15477;BME280;7840;42.702;23.296;2023-11-21T10:21:43;94664.38;;;11.15;100.00
15477;BME280;7840;42.702;23.296;2023-11-21T10:24:11;94664.47;;;11.45;98.53
15477;BME280;7840;42.702;23.296;2023-11-21T10:26:39;94661.81;;;11.50;97.10
15477;BME280;7840;42.702;23.296;2023-11-21T10:29:08;94661.88;;;11.71;94.00
15477;BME280;7840;42.702;23.296;2023-11-21T10:31:38;94656.84;;;11.74;93.50
15477;BME280;7840;42.702;23.296;2023-11-21T10:34:16;94659.78;;;11.83;92.54
15477;BME280;7840;42.702;23.296;2023-11-21T10:39:14;94650.78;;;12.04;88.32
15477;BME280;7840;42.702;23.296;2023-11-21T10:41:45;94641.75;;;12.05;85.47
15477;BME280;7840;42.702;23.296;2023-11-21T10:44:14;94639.09;;;12.21;84.64
15477;BME280;7840;42.702;23.296;2023-11-21T10:46:46;94641.22;;;12.29;83.10
15477;BME280;7840;42.702;23.296;2023-11-21T10:49:17;94642.53;;;12.37;82.17
15477;BME280;7840;42.702;23.296;2023-11-21T10:51:45;94641.22;;;12.29;82.00
15477;BME280;7840;42.702;23.296;2023-11-21T10:54:22;94632.72;;;11.86;84.58
15477;BME280;7840;42.702;23.296;2023-11-21T10:56:52;94627.69;;;11.95;86.37
15477;BME280;7840;42.702;23.296;2023-11-21T10:59:20;94627.44;;;12.01;85.06
15477;BME280;7840;42.702;23.296;2023-11-21T11:01:51;94630.59;;;11.93;84.52
15477;BME280;7840;42.702;23.296;2023-11-21T11:04:19;94623.66;;;11.77;86.28
15477;BME280;7840;42.702;23.296;2023-11-21T11:09:19;94616.72;;;11.35;88.06
15477;BME280;7840;42.702;23.296;2023-11-21T11:11:47;94619.78;;;10.96;90.32
15477;BME280;7840;42.702;23.296;2023-11-21T11:14:15;94612.84;;;10.90;92.77
15477;BME280;7840;42.702;23.296;2023-11-21T11:16:45;94606.53;;;10.91;92.94
15477;BME280;7840;42.702;23.296;2023-11-21T11:19:13;94598.88;;;11.00;91.47
15477;BME280;7840;42.702;23.296;2023-11-21T11:21:51;94590.69;;;11.22;91.89
15477;BME280;7840;42.702;23.296;2023-11-21T11:24:40;94586.50;;;11.41;90.91
15477;BME280;7840;42.702;23.296;2023-11-21T11:27:23;94591.28;;;11.49;90.46
15477;BME280;7840;42.702;23.296;2023-11-21T11:30:04;94585.97;;;11.65;87.81
15477;BME280;7840;42.702;23.296;2023-11-21T11:32:43;94578.28;;;11.78;87.32
15477;BME280;7840;42.702;23.296;2023-11-21T11:35:23;94572.75;;;11.90;85.60
15477;BME280;7840;42.702;23.296;2023-11-21T11:37:52;94572.22;;;11.93;86.17
15477;BME280;7840;42.702;23.296;2023-11-21T11:40:22;94573.81;;;11.89;86.09
15477;BME280;7840;42.702;23.296;2023-11-21T11:42:58;94578.06;;;11.95;86.67
15477;BME280;7840;42.702;23.296;2023-11-21T11:45:33;94590.72;;;11.37;88.55
15477;BME280;7840;42.702;23.296;2023-11-21T11:48:02;94592.59;;;10.59;94.03
15477;BME280;7840;42.702;23.296;2023-11-21T11:50:31;94592.44;;;10.28;100.00
15477;BME280;7840;42.702;23.296;2023-11-21T11:53:13;94601.50;;;10.37;100.00
15477;BME280;7840;42.702;23.296;2023-11-21T12:03:26;94582.84;;;9.48;100.00
15477;BME280;7840;42.702;23.296;2023-11-21T12:06:33;94592.91;;;9.51;100.00
15477;BME280;7840;42.702;23.296;2023-11-21T12:09:06;94594.88;;;9.34;100.00
15477;BME280;7840;42.702;23.296;2023-11-21T12:11:42;94598.19;;;9.24;100.00
15477;BME280;7840;42.702;23.296;2023-11-21T12:14:10;94595.41;;;9.36;100.00
15477;BME280;7840;42.702;23.296;2023-11-21T12:16:40;94593.03;;;9.07;100.00
15477;BME280;7840;42.702;23.296;2023-11-21T12:19:10;94592.09;;;8.96;100.00
15477;BME280;7840;42.702;23.296;2023-11-21T12:21:38;94590.38;;;8.85;100.00
15477;BME280;7840;42.702;23.296;2023-11-21T12:24:07;94588.50;;;8.81;100.00
15477;BME280;7840;42.702;23.296;2023-11-21T12:26:36;94583.09;;;8.70;100.00
15477;BME280;7840;42.702;23.296;2023-11-21T12:29:03;94583.16;;;8.54;100.00
15477;BME280;7840;42.702;23.296;2023-11-21T12:31:34;94595.19;;;8.44;100.00
15477;BME280;7840;42.702;23.296;2023-11-21T12:34:02;94598.28;;;8.80;100.00
15477;BME280;7840;42.702;23.296;2023-11-21T12:36:32;94591.44;;;8.84;100.00
15477;BME280;7840;42.702;23.296;2023-11-21T12:39:01;94596.13;;;8.55;100.00
15477;BME280;7840;42.702;23.296;2023-11-21T12:41:30;94589.94;;;8.44;100.00
15477;BME280;7840;42.702;23.296;2023-11-21T12:43:58;94587.50;;;8.43;100.00
15477;BME280;7840;42.702;23.296;2023-11-21T12:46:26;94575.00;;;8.55;100.00
15477;BME280;7840;42.702;23.296;2023-11-21T12:48:57;94572.84;;;8.74;100.00
15477;BME280;7840;42.702;23.296;2023-11-21T12:51:26;94566.25;;;8.76;100.00
15477;BME280;7840;42.702;23.296;2023-11-21T12:53:57;94559.41;;;8.75;100.00
15477;BME280;7840;42.702;23.296;2023-11-21T12:56:25;94565.91;;;8.46;100.00
15477;BME280;7840;42.702;23.296;2023-11-21T12:58:54;94551.72;;;8.74;100.00
15477;BME280;7840;42.702;23.296;2023-11-21T13:01:26;94548.81;;;8.32;100.00
15477;BME280;7840;42.702;23.296;2023-11-21T13:03:57;94553.31;;;8.31;100.00
15477;BME280;7840;42.702;23.296;2023-11-21T13:06:26;94545.88;;;8.28;100.00
15477;BME280;7840;42.702;23.296;2023-11-21T13:08:56;94546.19;;;8.32;100.00
15477;BME280;7840;42.702;23.296;2023-11-21T13:11:24;94545.28;;;8.43;100.00
15477;BME280;7840;42.702;23.296;2023-11-21T13:13:54;94545.03;;;8.66;100.00
15477;BME280;7840;42.702;23.296;2023-11-21T13:16:22;94539.53;;;8.46;100.00
15477;BME280;7840;42.702;23.296;2023-11-21T13:18:50;94544.31;;;8.49;100.00
15477;BME280;7840;42.702;23.296;2023-11-21T13:21:18;94550.13;;;8.73;100.00
15477;BME280;7840;42.702;23.296;2023-11-21T13:23:48;94531.50;;;8.85;100.00
15477;BME280;7840;42.702;23.296;2023-11-21T13:26:20;94535.78;;;8.42;100.00